sensor_id;sensor_type;location;lat;lon;timestamp;P1;durP1;ratioP1;P2;durP2;ratioP2
11620;SDS011;5866;49.094;11.900;2023-08-31T00:01:00;51.55;;;48.75;;
11620;SDS011;5866;49.094;11.900;2023-08-31T00:03:30;46.00;;;43.20;;
11620;SDS011;5866;49.094;11.900;2023-08-31T00:06:00;42.47;;;40.05;;
11620;SDS011;5866;49.094;11.900;2023-08-31T00:08:29;34.75;;;32.55;;
11620;SDS011;5866;49.094;11.900;2023-08-31T00:10:57;35.95;;;33.92;;
11620;SDS011;5866;49.094;11.900;2023-08-31T00:13:26;35.33;;;33.40;;
11620;SDS011;5866;49.094;11.900;2023-08-31T00:15:56;60.45;;;57.10;;
11620;SDS011;5866;49.094;11.900;2023-08-31T00:18:25;58.38;;;55.22;;
11620;SDS011;5866;49.094;11.900;2023-08-31T00:20:53;137.15;;;130.20;;
11620;SDS011;5866;49.094;11.900;2023-08-31T00:23:21;76.25;;;72.28;;
11620;SDS011;5866;49.094;11.900;2023-08-31T00:25:50;95.78;;;90.85;;
11620;SDS011;5866;49.094;11.900;2023-08-31T00:28:19;85.53;;;80.93;;
11620;SDS011;5866;49.094;11.900;2023-08-31T00:30:47;72.03;;;68.28;;
11620;SDS011;5866;49.094;11.900;2023-08-31T00:33:16;55.47;;;52.38;;
11620;SDS011;5866;49.094;11.900;2023-08-31T00:35:43;94.80;;;89.90;;
11620;SDS011;5866;49.094;11.900;2023-08-31T00:38:12;108.70;;;103.07;;
11620;SDS011;5866;49.094;11.900;2023-08-31T00:40:42;112.20;;;106.43;;
11620;SDS011;5866;49.094;11.900;2023-08-31T00:43:12;98.25;;;93.22;;
11620;SDS011;5866;49.094;11.900;2023-08-31T00:45:42;99.95;;;94.85;;
11620;SDS011;5866;49.094;11.900;2023-08-31T00:48:11;82.78;;;78.28;;
11620;SDS011;5866;49.094;11.900;2023-08-31T00:50:39;82.53;;;78.13;;
11620;SDS011;5866;49.094;11.900;2023-08-31T00:53:07;83.97;;;79.57;;
11620;SDS011;5866;49.094;11.900;2023-08-31T00:55:35;94.30;;;89.40;;
11620;SDS011;5866;49.094;11.900;2023-08-31T00:58:05;92.63;;;87.43;;
11620;SDS011;5866;49.094;11.900;2023-08-31T01:00:36;84.60;;;80.18;;
11620;SDS011;5866;49.094;11.900;2023-08-31T01:03:12;84.53;;;80.10;;
11620;SDS011;5866;49.094;11.900;2023-08-31T01:05:46;83.10;;;78.57;;
11620;SDS011;5866;49.094;11.900;2023-08-31T01:08:26;94.95;;;89.93;;
11620;SDS011;5866;49.094;11.900;2023-08-31T01:11:03;90.20;;;85.47;;
11620;SDS011;5866;49.094;11.900;2023-08-31T01:13:41;94.70;;;89.78;;
11620;SDS011;5866;49.094;11.900;2023-08-31T01:16:11;118.25;;;112.07;;
11620;SDS011;5866;49.094;11.900;2023-08-31T01:18:40;107.85;;;102.30;;
11620;SDS011;5866;49.094;11.900;2023-08-31T01:21:11;106.22;;;100.65;;
11620;SDS011;5866;49.094;11.900;2023-08-31T01:23:49;102.07;;;96.57;;
11620;SDS011;5866;49.094;11.900;2023-08-31T01:26:19;98.65;;;93.45;;
11620;SDS011;5866;49.094;11.900;2023-08-31T01:28:47;86.80;;;82.13;;
11620;SDS011;5866;49.094;11.900;2023-08-31T01:31:16;99.00;;;93.88;;
11620;SDS011;5866;49.094;11.900;2023-08-31T01:33:44;80.05;;;75.80;;
11620;SDS011;5866;49.094;11.900;2023-08-31T01:36:14;83.60;;;79.15;;
11620;SDS011;5866;49.094;11.900;2023-08-31T01:38:50;108.15;;;102.55;;
11620;SDS011;5866;49.094;11.900;2023-08-31T01:41:22;110.38;;;104.68;;
11620;SDS011;5866;49.094;11.900;2023-08-31T01:43:53;123.60;;;117.10;;
11620;SDS011;5866;49.094;11.900;2023-08-31T01:46:21;97.40;;;92.10;;
11620;SDS011;5866;49.094;11.900;2023-08-31T01:48:48;73.22;;;69.25;;
11620;SDS011;5866;49.094;11.900;2023-08-31T01:51:16;73.13;;;69.13;;
11620;SDS011;5866;49.094;11.900;2023-08-31T01:53:44;84.47;;;80.05;;
11620;SDS011;5866;49.094;11.900;2023-08-31T01:56:13;85.70;;;81.18;;
11620;SDS011;5866;49.094;11.900;2023-08-31T01:58:41;75.38;;;71.30;;
11620;SDS011;5866;49.094;11.900;2023-08-31T02:01:08;69.75;;;65.95;;
11620;SDS011;5866;49.094;11.900;2023-08-31T02:03:36;61.85;;;58.50;;
11620;SDS011;5866;49.094;11.900;2023-08-31T02:06:04;55.65;;;52.28;;
11620;SDS011;5866;49.094;11.900;2023-08-31T02:08:32;44.92;;;42.28;;
11620;SDS011;5866;49.094;11.900;2023-08-31T02:10:59;53.92;;;50.88;;
11620;SDS011;5866;49.094;11.900;2023-08-31T02:13:29;29.67;;;28.00;;
11620;SDS011;5866;49.094;11.900;2023-08-31T02:15:57;40.60;;;38.28;;
11620;SDS011;5866;49.094;11.900;2023-08-31T02:18:25;32.53;;;30.60;;
11620;SDS011;5866;49.094;11.900;2023-08-31T02:20:52;32.20;;;30.35;;
11620;SDS011;5866;49.094;11.900;2023-08-31T02:23:20;23.00;;;21.65;;
11620;SDS011;5866;49.094;11.900;2023-08-31T02:25:47;25.83;;;24.33;;
11620;SDS011;5866;49.094;11.900;2023-08-31T02:28:15;18.25;;;16.85;;
11620;SDS011;5866;49.094;11.900;2023-08-31T02:30:45;20.45;;;19.15;;
11620;SDS011;5866;49.094;11.900;2023-08-31T02:33:13;17.70;;;16.65;;
11620;SDS011;5866;49.094;11.900;2023-08-31T02:35:41;19.05;;;17.95;;
11620;SDS011;5866;49.094;11.900;2023-08-31T02:38:09;16.45;;;15.43;;
11620;SDS011;5866;49.094;11.900;2023-08-31T02:40:37;16.63;;;15.52;;
11620;SDS011;5866;49.094;11.900;2023-08-31T02:43:04;17.42;;;16.13;;
11620;SDS011;5866;49.094;11.900;2023-08-31T02:45:32;14.95;;;13.95;;
11620;SDS011;5866;49.094;11.900;2023-08-31T02:48:01;16.65;;;15.40;;
11620;SDS011;5866;49.094;11.900;2023-08-31T02:50:30;16.02;;;14.85;;
11620;SDS011;5866;49.094;11.900;2023-08-31T02:52:57;14.85;;;13.93;;
11620;SDS011;5866;49.094;11.900;2023-08-31T02:55:25;15.30;;;14.25;;
11620;SDS011;5866;49.094;11.900;2023-08-31T02:57:53;12.80;;;11.93;;
11620;SDS011;5866;49.094;11.900;2023-08-31T03:00:21;11.60;;;10.80;;
11620;SDS011;5866;49.094;11.900;2023-08-31T03:02:49;11.43;;;10.52;;
11620;SDS011;5866;49.094;11.900;2023-08-31T03:05:19;10.95;;;10.25;;
11620;SDS011;5866;49.094;11.900;2023-08-31T03:07:48;11.60;;;10.63;;
11620;SDS011;5866;49.094;11.900;2023-08-31T03:10:15;11.80;;;11.00;;
11620;SDS011;5866;49.094;11.900;2023-08-31T03:12:43;11.05;;;10.25;;
11620;SDS011;5866;49.094;11.900;2023-08-31T03:15:10;10.85;;;10.02;;
11620;SDS011;5866;49.094;11.900;2023-08-31T03:17:38;11.40;;;10.50;;
11620;SDS011;5866;49.094;11.900;2023-08-31T03:20:07;11.55;;;10.65;;
11620;SDS011;5866;49.094;11.900;2023-08-31T03:22:36;11.27;;;10.45;;
11620;SDS011;5866;49.094;11.900;2023-08-31T03:25:04;11.60;;;10.70;;
11620;SDS011;5866;49.094;11.900;2023-08-31T03:27:31;12.82;;;11.85;;
11620;SDS011;5866;49.094;11.900;2023-08-31T03:29:59;15.85;;;14.85;;
11620;SDS011;5866;49.094;11.900;2023-08-31T03:32:26;14.13;;;13.13;;
11620;SDS011;5866;49.094;11.900;2023-08-31T03:34:54;15.00;;;14.00;;
11620;SDS011;5866;49.094;11.900;2023-08-31T03:37:22;14.05;;;12.95;;
11620;SDS011;5866;49.094;11.900;2023-08-31T03:39:51;14.57;;;13.55;;
11620;SDS011;5866;49.094;11.900;2023-08-31T03:42:18;14.70;;;13.70;;
11620;SDS011;5866;49.094;11.900;2023-08-31T03:44:46;14.32;;;13.32;;
11620;SDS011;5866;49.094;11.900;2023-08-31T03:47:13;12.50;;;11.60;;
11620;SDS011;5866;49.094;11.900;2023-08-31T03:49:41;12.60;;;11.70;;
11620;SDS011;5866;49.094;11.900;2023-08-31T03:52:08;13.10;;;11.82;;
11620;SDS011;5866;49.094;11.900;2023-08-31T03:54:36;12.40;;;11.50;;
11620;SDS011;5866;49.094;11.900;2023-08-31T03:57:05;12.77;;;11.82;;
11620;SDS011;5866;49.094;11.900;2023-08-31T03:59:33;14.27;;;13.13;;
11620;SDS011;5866;49.094;11.900;2023-08-31T04:02:00;12.88;;;11.98;;
11620;SDS011;5866;49.094;11.900;2023-08-31T04:04:28;13.35;;;12.40;;
11620;SDS011;5866;49.094;11.900;2023-08-31T04:06:55;12.80;;;11.88;;
11620;SDS011;5866;49.094;11.900;2023-08-31T04:09:23;12.98;;;11.88;;
11620;SDS011;5866;49.094;11.900;2023-08-31T04:11:51;11.98;;;10.98;;
11620;SDS011;5866;49.094;11.900;2023-08-31T04:14:19;10.27;;;9.48;;
11620;SDS011;5866;49.094;11.900;2023-08-31T04:16:47;10.80;;;9.82;;
11620;SDS011;5866;49.094;11.900;2023-08-31T04:19:16;12.57;;;11.73;;
11620;SDS011;5866;49.094;11.900;2023-08-31T04:21:44;15.15;;;14.10;;
11620;SDS011;5866;49.094;11.900;2023-08-31T04:24:11;18.08;;;16.88;;
11620;SDS011;5866;49.094;11.900;2023-08-31T04:26:39;28.42;;;26.73;;
11620;SDS011;5866;49.094;11.900;2023-08-31T04:29:06;20.92;;;19.48;;
11620;SDS011;5866;49.094;11.900;2023-08-31T04:31:35;17.70;;;16.45;;
11620;SDS011;5866;49.094;11.900;2023-08-31T04:34:04;13.20;;;12.30;;
11620;SDS011;5866;49.094;11.900;2023-08-31T04:36:31;15.18;;;14.13;;
11620;SDS011;5866;49.094;11.900;2023-08-31T04:38:59;15.65;;;14.35;;
11620;SDS011;5866;49.094;11.900;2023-08-31T04:41:27;13.90;;;12.80;;
11620;SDS011;5866;49.094;11.900;2023-08-31T04:43:54;14.27;;;13.27;;
11620;SDS011;5866;49.094;11.900;2023-08-31T04:46:22;13.85;;;12.75;;
11620;SDS011;5866;49.094;11.900;2023-08-31T04:48:51;12.13;;;11.23;;
11620;SDS011;5866;49.094;11.900;2023-08-31T04:51:28;12.40;;;11.45;;
11620;SDS011;5866;49.094;11.900;2023-08-31T04:54:00;14.05;;;12.95;;
11620;SDS011;5866;49.094;11.900;2023-08-31T04:56:29;14.82;;;13.63;;
11620;SDS011;5866;49.094;11.900;2023-08-31T04:58:57;17.63;;;16.40;;
11620;SDS011;5866;49.094;11.900;2023-08-31T05:01:25;14.20;;;13.20;;
11620;SDS011;5866;49.094;11.900;2023-08-31T05:03:55;15.70;;;14.50;;
11620;SDS011;5866;49.094;11.900;2023-08-31T05:06:22;13.20;;;12.13;;
11620;SDS011;5866;49.094;11.900;2023-08-31T05:08:50;12.52;;;11.63;;
11620;SDS011;5866;49.094;11.900;2023-08-31T05:11:18;12.75;;;11.75;;
11620;SDS011;5866;49.094;11.900;2023-08-31T05:13:46;11.00;;;10.20;;
11620;SDS011;5866;49.094;11.900;2023-08-31T05:16:14;16.95;;;15.63;;
11620;SDS011;5866;49.094;11.900;2023-08-31T05:18:42;66.05;;;62.38;;
11620;SDS011;5866;49.094;11.900;2023-08-31T05:21:11;19.77;;;18.33;;
11620;SDS011;5866;49.094;11.900;2023-08-31T05:23:38;26.23;;;24.73;;
11620;SDS011;5866;49.094;11.900;2023-08-31T05:26:06;123.15;;;116.80;;
11620;SDS011;5866;49.094;11.900;2023-08-31T05:28:33;145.48;;;138.02;;
11620;SDS011;5866;49.094;11.900;2023-08-31T05:31:01;27.88;;;26.25;;
11620;SDS011;5866;49.094;11.900;2023-08-31T05:33:29;11.18;;;10.35;;
11620;SDS011;5866;49.094;11.900;2023-08-31T05:36:01;11.18;;;10.40;;
11620;SDS011;5866;49.094;11.900;2023-08-31T05:38:31;6.30;;;5.70;;
11620;SDS011;5866;49.094;11.900;2023-08-31T05:41:05;7.05;;;6.22;;
11620;SDS011;5866;49.094;11.900;2023-08-31T05:43:33;6.95;;;6.55;;
11620;SDS011;5866;49.094;11.900;2023-08-31T05:46:01;5.82;;;5.32;;
11620;SDS011;5866;49.094;11.900;2023-08-31T05:48:30;6.10;;;5.60;;
11620;SDS011;5866;49.094;11.900;2023-08-31T05:50:57;5.20;;;4.80;;
11620;SDS011;5866;49.094;11.900;2023-08-31T05:53:25;5.15;;;4.60;;
11620;SDS011;5866;49.094;11.900;2023-08-31T05:55:57;6.03;;;5.10;;
11620;SDS011;5866;49.094;11.900;2023-08-31T05:58:30;5.97;;;5.53;;
11620;SDS011;5866;49.094;11.900;2023-08-31T06:00:59;6.75;;;6.32;;
11620;SDS011;5866;49.094;11.900;2023-08-31T06:03:27;7.28;;;6.38;;
11620;SDS011;5866;49.094;11.900;2023-08-31T06:05:55;5.38;;;4.90;;
11620;SDS011;5866;49.094;11.900;2023-08-31T06:08:23;5.05;;;4.65;;
11620;SDS011;5866;49.094;11.900;2023-08-31T06:10:51;7.22;;;6.72;;
11620;SDS011;5866;49.094;11.900;2023-08-31T06:13:20;7.28;;;6.68;;
11620;SDS011;5866;49.094;11.900;2023-08-31T06:15:47;7.55;;;6.95;;
11620;SDS011;5866;49.094;11.900;2023-08-31T06:18:15;9.05;;;8.45;;
11620;SDS011;5866;49.094;11.900;2023-08-31T06:20:43;10.05;;;9.25;;
11620;SDS011;5866;49.094;11.900;2023-08-31T06:23:10;7.88;;;7.20;;
11620;SDS011;5866;49.094;11.900;2023-08-31T06:25:39;8.88;;;8.15;;
11620;SDS011;5866;49.094;11.900;2023-08-31T06:28:06;8.57;;;7.90;;
11620;SDS011;5866;49.094;11.900;2023-08-31T06:30:38;8.48;;;7.43;;
11620;SDS011;5866;49.094;11.900;2023-08-31T06:33:06;7.95;;;7.35;;
11620;SDS011;5866;49.094;11.900;2023-08-31T06:35:34;7.47;;;6.88;;
11620;SDS011;5866;49.094;11.900;2023-08-31T06:38:01;6.93;;;6.43;;
11620;SDS011;5866;49.094;11.900;2023-08-31T06:40:29;6.35;;;5.78;;
11620;SDS011;5866;49.094;11.900;2023-08-31T06:42:57;6.30;;;5.80;;
11620;SDS011;5866;49.094;11.900;2023-08-31T06:45:25;8.10;;;6.72;;
11620;SDS011;5866;49.094;11.900;2023-08-31T06:47:54;6.85;;;6.25;;
11620;SDS011;5866;49.094;11.900;2023-08-31T06:50:22;5.63;;;4.65;;
11620;SDS011;5866;49.094;11.900;2023-08-31T06:52:49;5.45;;;4.95;;
11620;SDS011;5866;49.094;11.900;2023-08-31T06:55:17;4.95;;;4.53;;
11620;SDS011;5866;49.094;11.900;2023-08-31T06:57:44;4.28;;;3.88;;
11620;SDS011;5866;49.094;11.900;2023-08-31T07:00:12;4.57;;;4.05;;
11620;SDS011;5866;49.094;11.900;2023-08-31T07:02:40;6.38;;;4.20;;
11620;SDS011;5866;49.094;11.900;2023-08-31T07:05:11;4.18;;;3.42;;
11620;SDS011;5866;49.094;11.900;2023-08-31T07:07:38;5.15;;;4.28;;
11620;SDS011;5866;49.094;11.900;2023-08-31T07:10:06;4.40;;;3.90;;
11620;SDS011;5866;49.094;11.900;2023-08-31T07:12:34;3.85;;;3.55;;
11620;SDS011;5866;49.094;11.900;2023-08-31T07:15:02;5.10;;;4.20;;
11620;SDS011;5866;49.094;11.900;2023-08-31T07:17:30;4.25;;;3.85;;
11620;SDS011;5866;49.094;11.900;2023-08-31T07:19:57;5.80;;;4.68;;
11620;SDS011;5866;49.094;11.900;2023-08-31T07:22:26;6.18;;;4.20;;
11620;SDS011;5866;49.094;11.900;2023-08-31T07:24:54;4.60;;;4.18;;
11620;SDS011;5866;49.094;11.900;2023-08-31T07:27:22;4.88;;;4.30;;
11620;SDS011;5866;49.094;11.900;2023-08-31T07:29:49;4.65;;;4.25;;
11620;SDS011;5866;49.094;11.900;2023-08-31T07:32:17;4.57;;;4.20;;
11620;SDS011;5866;49.094;11.900;2023-08-31T07:34:45;4.30;;;3.90;;
11620;SDS011;5866;49.094;11.900;2023-08-31T07:37:12;4.75;;;4.35;;
11620;SDS011;5866;49.094;11.900;2023-08-31T07:39:41;6.63;;;4.97;;
11620;SDS011;5866;49.094;11.900;2023-08-31T07:42:09;5.88;;;5.38;;
11620;SDS011;5866;49.094;11.900;2023-08-31T07:44:36;4.63;;;4.22;;
11620;SDS011;5866;49.094;11.900;2023-08-31T07:47:04;5.32;;;4.82;;
11620;SDS011;5866;49.094;11.900;2023-08-31T07:49:32;5.43;;;4.47;;
11620;SDS011;5866;49.094;11.900;2023-08-31T07:51:59;5.05;;;4.50;;
11620;SDS011;5866;49.094;11.900;2023-08-31T07:54:27;5.68;;;4.15;;
11620;SDS011;5866;49.094;11.900;2023-08-31T07:56:56;5.55;;;4.20;;
11620;SDS011;5866;49.094;11.900;2023-08-31T07:59:23;3.90;;;3.50;;
11620;SDS011;5866;49.094;11.900;2023-08-31T08:01:51;3.97;;;3.40;;
11620;SDS011;5866;49.094;11.900;2023-08-31T08:04:18;4.22;;;3.92;;
11620;SDS011;5866;49.094;11.900;2023-08-31T08:06:48;5.32;;;4.50;;
11620;SDS011;5866;49.094;11.900;2023-08-31T08:09:17;4.90;;;3.85;;
11620;SDS011;5866;49.094;11.900;2023-08-31T08:11:44;4.75;;;4.35;;
11620;SDS011;5866;49.094;11.900;2023-08-31T08:14:13;4.43;;;4.03;;
11620;SDS011;5866;49.094;11.900;2023-08-31T08:16:41;4.75;;;4.35;;
11620;SDS011;5866;49.094;11.900;2023-08-31T08:19:09;4.22;;;3.72;;
11620;SDS011;5866;49.094;11.900;2023-08-31T08:21:37;3.92;;;3.55;;
11620;SDS011;5866;49.094;11.900;2023-08-31T08:24:04;3.85;;;3.22;;
11620;SDS011;5866;49.094;11.900;2023-08-31T08:26:32;5.38;;;3.00;;
11620;SDS011;5866;49.094;11.900;2023-08-31T08:29:00;6.40;;;3.58;;
11620;SDS011;5866;49.094;11.900;2023-08-31T08:31:30;3.30;;;3.03;;
11620;SDS011;5866;49.094;11.900;2023-08-31T08:33:58;5.18;;;3.25;;
11620;SDS011;5866;49.094;11.900;2023-08-31T08:36:26;3.80;;;3.17;;
11620;SDS011;5866;49.094;11.900;2023-08-31T08:38:54;5.43;;;3.33;;
11620;SDS011;5866;49.094;11.900;2023-08-31T08:41:22;4.18;;;3.35;;
11620;SDS011;5866;49.094;11.900;2023-08-31T08:43:51;3.22;;;2.92;;
11620;SDS011;5866;49.094;11.900;2023-08-31T08:46:18;5.78;;;3.40;;
11620;SDS011;5866;49.094;11.900;2023-08-31T08:48:48;4.45;;;3.03;;
11620;SDS011;5866;49.094;11.900;2023-08-31T08:51:16;4.95;;;3.10;;
11620;SDS011;5866;49.094;11.900;2023-08-31T08:53:44;4.30;;;3.90;;
11620;SDS011;5866;49.094;11.900;2023-08-31T08:56:13;2.50;;;2.30;;
11620;SDS011;5866;49.094;11.900;2023-08-31T08:58:41;3.65;;;2.92;;
11620;SDS011;5866;49.094;11.900;2023-08-31T09:01:08;3.40;;;3.20;;
11620;SDS011;5866;49.094;11.900;2023-08-31T09:03:36;3.33;;;2.65;;
11620;SDS011;5866;49.094;11.900;2023-08-31T09:06:05;3.72;;;3.40;;
11620;SDS011;5866;49.094;11.900;2023-08-31T09:08:34;4.45;;;2.90;;
11620;SDS011;5866;49.094;11.900;2023-08-31T09:11:03;4.10;;;3.28;;
11620;SDS011;5866;49.094;11.900;2023-08-31T09:13:31;3.20;;;2.80;;
11620;SDS011;5866;49.094;11.900;2023-08-31T09:16:00;3.38;;;3.08;;
11620;SDS011;5866;49.094;11.900;2023-08-31T09:18:28;2.50;;;2.30;;
11620;SDS011;5866;49.094;11.900;2023-08-31T09:20:58;3.75;;;2.75;;
11620;SDS011;5866;49.094;11.900;2023-08-31T09:23:28;5.20;;;2.65;;
11620;SDS011;5866;49.094;11.900;2023-08-31T09:25:56;7.22;;;3.00;;
11620;SDS011;5866;49.094;11.900;2023-08-31T09:28:24;3.88;;;3.03;;
11620;SDS011;5866;49.094;11.900;2023-08-31T09:31:03;3.38;;;3.17;;
11620;SDS011;5866;49.094;11.900;2023-08-31T09:33:32;4.97;;;3.10;;
11620;SDS011;5866;49.094;11.900;2023-08-31T09:36:01;2.60;;;2.13;;
11620;SDS011;5866;49.094;11.900;2023-08-31T09:38:31;3.20;;;2.90;;
11620;SDS011;5866;49.094;11.900;2023-08-31T09:41:03;2.65;;;2.45;;
11620;SDS011;5866;49.094;11.900;2023-08-31T09:43:31;3.70;;;2.67;;
11620;SDS011;5866;49.094;11.900;2023-08-31T09:45:59;4.18;;;3.03;;
11620;SDS011;5866;49.094;11.900;2023-08-31T09:48:29;3.72;;;2.45;;
11620;SDS011;5866;49.094;11.900;2023-08-31T09:50:58;3.65;;;2.80;;
11620;SDS011;5866;49.094;11.900;2023-08-31T09:53:25;4.78;;;2.75;;
11620;SDS011;5866;49.094;11.900;2023-08-31T09:55:57;4.85;;;2.60;;
11620;SDS011;5866;49.094;11.900;2023-08-31T09:58:26;3.80;;;2.55;;
11620;SDS011;5866;49.094;11.900;2023-08-31T10:00:56;4.25;;;2.63;;
11620;SDS011;5866;49.094;11.900;2023-08-31T10:03:24;3.53;;;3.00;;
11620;SDS011;5866;49.094;11.900;2023-08-31T10:05:54;3.47;;;3.17;;
11620;SDS011;5866;49.094;11.900;2023-08-31T10:08:23;5.13;;;3.28;;
11620;SDS011;5866;49.094;11.900;2023-08-31T10:10:52;4.75;;;3.15;;
11620;SDS011;5866;49.094;11.900;2023-08-31T10:13:22;3.90;;;3.50;;
11620;SDS011;5866;49.094;11.900;2023-08-31T10:15:52;3.83;;;2.90;;
11620;SDS011;5866;49.094;11.900;2023-08-31T10:18:19;4.72;;;3.20;;
11620;SDS011;5866;49.094;11.900;2023-08-31T10:20:48;3.55;;;3.25;;
11620;SDS011;5866;49.094;11.900;2023-08-31T10:23:15;3.70;;;3.25;;
11620;SDS011;5866;49.094;11.900;2023-08-31T10:25:59;6.80;;;3.58;;
11620;SDS011;5866;49.094;11.900;2023-08-31T10:28:29;3.33;;;2.90;;
11620;SDS011;5866;49.094;11.900;2023-08-31T10:31:00;3.65;;;3.20;;
11620;SDS011;5866;49.094;11.900;2023-08-31T10:33:28;6.80;;;3.17;;
11620;SDS011;5866;49.094;11.900;2023-08-31T10:35:59;4.15;;;3.30;;
11620;SDS011;5866;49.094;11.900;2023-08-31T10:38:27;4.63;;;3.08;;
11620;SDS011;5866;49.094;11.900;2023-08-31T10:41:01;3.53;;;3.22;;
11620;SDS011;5866;49.094;11.900;2023-08-31T10:43:50;3.78;;;3.40;;
11620;SDS011;5866;49.094;11.900;2023-08-31T10:46:24;3.78;;;3.40;;
11620;SDS011;5866;49.094;11.900;2023-08-31T10:48:54;5.13;;;3.83;;
11620;SDS011;5866;49.094;11.900;2023-08-31T10:51:23;5.20;;;4.25;;
11620;SDS011;5866;49.094;11.900;2023-08-31T10:53:51;4.53;;;3.72;;
11620;SDS011;5866;49.094;11.900;2023-08-31T10:56:19;3.78;;;3.47;;
11620;SDS011;5866;49.094;11.900;2023-08-31T10:58:58;4.40;;;4.00;;
11620;SDS011;5866;49.094;11.900;2023-08-31T11:04:22;3.97;;;3.58;;
11620;SDS011;5866;49.094;11.900;2023-08-31T11:09:41;4.30;;;3.90;;
11620;SDS011;5866;49.094;11.900;2023-08-31T11:12:09;4.40;;;4.03;;
11620;SDS011;5866;49.094;11.900;2023-08-31T11:14:39;4.90;;;3.88;;
11620;SDS011;5866;49.094;11.900;2023-08-31T11:17:06;3.63;;;3.33;;
11620;SDS011;5866;49.094;11.900;2023-08-31T11:19:34;3.97;;;3.40;;
11620;SDS011;5866;49.094;11.900;2023-08-31T11:22:03;3.90;;;3.60;;
11620;SDS011;5866;49.094;11.900;2023-08-31T11:24:31;4.82;;;2.95;;
11620;SDS011;5866;49.094;11.900;2023-08-31T11:27:00;3.13;;;2.80;;
11620;SDS011;5866;49.094;11.900;2023-08-31T11:29:29;3.65;;;3.28;;
11620;SDS011;5866;49.094;11.900;2023-08-31T11:31:58;3.17;;;2.88;;
11620;SDS011;5866;49.094;11.900;2023-08-31T11:34:27;4.90;;;3.53;;
11620;SDS011;5866;49.094;11.900;2023-08-31T11:36:54;2.55;;;2.35;;
11620;SDS011;5866;49.094;11.900;2023-08-31T11:39:22;3.42;;;3.10;;
11620;SDS011;5866;49.094;11.900;2023-08-31T11:41:51;2.80;;;2.58;;
11620;SDS011;5866;49.094;11.900;2023-08-31T11:44:19;2.83;;;2.53;;
11620;SDS011;5866;49.094;11.900;2023-08-31T11:46:46;3.00;;;2.70;;
11620;SDS011;5866;49.094;11.900;2023-08-31T11:49:17;3.40;;;2.88;;
11620;SDS011;5866;49.094;11.900;2023-08-31T11:51:45;6.43;;;3.03;;
11620;SDS011;5866;49.094;11.900;2023-08-31T11:54:17;2.83;;;2.53;;
11620;SDS011;5866;49.094;11.900;2023-08-31T11:56:45;3.65;;;3.25;;
11620;SDS011;5866;49.094;11.900;2023-08-31T11:59:15;2.78;;;2.42;;
11620;SDS011;5866;49.094;11.900;2023-08-31T12:01:45;3.50;;;2.63;;
11620;SDS011;5866;49.094;11.900;2023-08-31T12:04:15;3.65;;;2.80;;
11620;SDS011;5866;49.094;11.900;2023-08-31T12:06:47;6.13;;;2.97;;
11620;SDS011;5866;49.094;11.900;2023-08-31T12:09:15;3.55;;;2.63;;
11620;SDS011;5866;49.094;11.900;2023-08-31T12:11:48;2.70;;;2.47;;
11620;SDS011;5866;49.094;11.900;2023-08-31T12:14:20;2.97;;;2.42;;
11620;SDS011;5866;49.094;11.900;2023-08-31T12:16:48;4.47;;;4.13;;
11620;SDS011;5866;49.094;11.900;2023-08-31T12:19:17;2.67;;;2.30;;
11620;SDS011;5866;49.094;11.900;2023-08-31T12:21:46;3.63;;;2.65;;
11620;SDS011;5866;49.094;11.900;2023-08-31T12:24:14;4.78;;;3.08;;
11620;SDS011;5866;49.094;11.900;2023-08-31T12:26:43;5.85;;;5.45;;
11620;SDS011;5866;49.094;11.900;2023-08-31T12:29:11;3.17;;;2.30;;
11620;SDS011;5866;49.094;11.900;2023-08-31T12:31:38;3.97;;;2.58;;
11620;SDS011;5866;49.094;11.900;2023-08-31T12:34:06;2.63;;;2.30;;
11620;SDS011;5866;49.094;11.900;2023-08-31T12:36:34;2.72;;;2.50;;
11620;SDS011;5866;49.094;11.900;2023-08-31T12:39:04;2.72;;;2.50;;
11620;SDS011;5866;49.094;11.900;2023-08-31T12:41:34;3.60;;;2.70;;
11620;SDS011;5866;49.094;11.900;2023-08-31T12:44:02;3.13;;;2.72;;
11620;SDS011;5866;49.094;11.900;2023-08-31T12:46:31;2.90;;;2.60;;
11620;SDS011;5866;49.094;11.900;2023-08-31T12:48:59;3.50;;;2.90;;
11620;SDS011;5866;49.094;11.900;2023-08-31T12:51:27;4.10;;;2.90;;
11620;SDS011;5866;49.094;11.900;2023-08-31T12:53:55;3.78;;;2.80;;
11620;SDS011;5866;49.094;11.900;2023-08-31T12:56:24;3.35;;;2.78;;
11620;SDS011;5866;49.094;11.900;2023-08-31T12:58:52;4.45;;;2.95;;
11620;SDS011;5866;49.094;11.900;2023-08-31T13:01:21;3.70;;;2.58;;
11620;SDS011;5866;49.094;11.900;2023-08-31T13:03:50;4.47;;;2.55;;
11620;SDS011;5866;49.094;11.900;2023-08-31T13:06:18;2.67;;;2.47;;
11620;SDS011;5866;49.094;11.900;2023-08-31T13:08:47;3.22;;;2.92;;
11620;SDS011;5866;49.094;11.900;2023-08-31T13:11:14;3.83;;;3.22;;
11620;SDS011;5866;49.094;11.900;2023-08-31T13:13:44;3.28;;;2.90;;
11620;SDS011;5866;49.094;11.900;2023-08-31T13:16:12;2.70;;;2.50;;
11620;SDS011;5866;49.094;11.900;2023-08-31T13:18:39;3.25;;;2.95;;
11620;SDS011;5866;49.094;11.900;2023-08-31T13:21:07;2.80;;;2.42;;
11620;SDS011;5866;49.094;11.900;2023-08-31T13:23:34;3.53;;;3.22;;
11620;SDS011;5866;49.094;11.900;2023-08-31T13:26:02;3.15;;;2.88;;
11620;SDS011;5866;49.094;11.900;2023-08-31T13:28:29;3.30;;;2.88;;
11620;SDS011;5866;49.094;11.900;2023-08-31T13:30:59;3.10;;;2.72;;
11620;SDS011;5866;49.094;11.900;2023-08-31T13:33:27;4.07;;;2.80;;
11620;SDS011;5866;49.094;11.900;2023-08-31T13:35:56;3.13;;;2.83;;
11620;SDS011;5866;49.094;11.900;2023-08-31T13:38:24;3.13;;;2.83;;
11620;SDS011;5866;49.094;11.900;2023-08-31T13:40:53;4.30;;;2.80;;
11620;SDS011;5866;49.094;11.900;2023-08-31T13:43:21;3.80;;;2.70;;
11620;SDS011;5866;49.094;11.900;2023-08-31T13:45:49;4.35;;;3.10;;
11620;SDS011;5866;49.094;11.900;2023-08-31T13:48:19;4.38;;;2.83;;
11620;SDS011;5866;49.094;11.900;2023-08-31T13:50:49;3.30;;;3.00;;
11620;SDS011;5866;49.094;11.900;2023-08-31T13:53:17;3.65;;;2.97;;
11620;SDS011;5866;49.094;11.900;2023-08-31T13:55:44;3.25;;;2.70;;
11620;SDS011;5866;49.094;11.900;2023-08-31T13:58:12;4.88;;;2.90;;
11620;SDS011;5866;49.094;11.900;2023-08-31T14:00:40;4.03;;;3.63;;
11620;SDS011;5866;49.094;11.900;2023-08-31T14:03:08;3.88;;;2.85;;
11620;SDS011;5866;49.094;11.900;2023-08-31T14:05:37;3.30;;;2.83;;
11620;SDS011;5866;49.094;11.900;2023-08-31T14:08:05;4.68;;;3.05;;
11620;SDS011;5866;49.094;11.900;2023-08-31T14:10:32;2.58;;;2.38;;
11620;SDS011;5866;49.094;11.900;2023-08-31T14:13:00;3.63;;;2.80;;
11620;SDS011;5866;49.094;11.900;2023-08-31T14:15:28;2.88;;;2.58;;
11620;SDS011;5866;49.094;11.900;2023-08-31T14:17:55;5.30;;;2.97;;
11620;SDS011;5866;49.094;11.900;2023-08-31T14:20:23;3.78;;;2.88;;
11620;SDS011;5866;49.094;11.900;2023-08-31T14:22:52;4.28;;;2.92;;
11620;SDS011;5866;49.094;11.900;2023-08-31T14:25:19;3.83;;;2.67;;
11620;SDS011;5866;49.094;11.900;2023-08-31T14:27:50;3.55;;;3.15;;
11620;SDS011;5866;49.094;11.900;2023-08-31T14:30:17;7.57;;;3.33;;
11620;SDS011;5866;49.094;11.900;2023-08-31T14:32:45;3.83;;;2.95;;
11620;SDS011;5866;49.094;11.900;2023-08-31T14:35:12;2.85;;;2.53;;
11620;SDS011;5866;49.094;11.900;2023-08-31T14:37:40;3.20;;;2.83;;
11620;SDS011;5866;49.094;11.900;2023-08-31T14:40:11;2.95;;;2.60;;
11620;SDS011;5866;49.094;11.900;2023-08-31T14:42:40;3.85;;;3.03;;
11620;SDS011;5866;49.094;11.900;2023-08-31T14:45:07;3.85;;;2.50;;
11620;SDS011;5866;49.094;11.900;2023-08-31T14:47:35;3.35;;;2.80;;
11620;SDS011;5866;49.094;11.900;2023-08-31T14:50:03;3.13;;;2.75;;